DRBK1: Arkansas River, Derby, KS

                                SHEF ID:       DRBK1     ARKANSAS R AT DERBY, KS
STATION TYPE:
Regulating: Stage = 12.00, Flow = 23387

PRECIP STAGE RIV-FLOW BAT-LOAD
in ft cfs volt
Ccp-Rev Ccp-Rev Ccp-Rev Ccp-Rev
(America/Chicago)
03/12 00:00 ---- 2.42 1110 12.65
03/12 01:00 ---- 2.42 1110 12.57
03/12 02:00 ---- 2.41 1102 12.49
03/12 03:00 ---- 2.39 1086 12.49
03/12 04:00 ---- 2.36 1063 12.49
03/12 05:00 ---- 2.32 1032 12.49
03/12 06:00 ---- 2.26 987 12.49
03/12 07:00 ---- 2.20 942 12.41
03/12 08:00 ---- 2.17 921 12.41
03/12 09:00 ---- 2.16 914 12.41
03/12 10:00 ---- 2.12 885 12.49
03/12 11:00 ---- 2.08 857 12.49
03/12 12:00 ---- 2.03 823 13.21
03/12 13:00 ---- 1.99 796 13.29
03/12 14:00 ---- 1.97 783 13.29
03/12 15:00 ---- 1.93 757 13.29
03/12 16:00 ---- 1.90 737 13.21
03/12 17:00 ---- 1.87 718 13.21
03/12 18:00 ---- 1.86 712 13.21
03/12 19:00 ---- 1.85 706 13.21
03/12 20:00 ---- 1.83 693 12.89
03/12 21:00 ---- 1.81 681 12.73
03/12 22:00 ---- 1.78 663 12.65
03/12 23:00 ---- 1.78 663 12.57
Data processed at Fri 13Mar2026 04:04 GMT

NOTICE: If you are parsing this page

Please convert to using our Data API. Starting early 2026 we will be migrating to: https://water.usace.army.mil with modern pages rendered in JavaScript. When this migration completes you will no longer be able to scrape this page! CWMSDataAPI (CDA)

Timeseries IDs (TSIDs)

TSIDs used from left to right in the data table
DERB.Precip-Inc.Total.1Hour.1Hour.Ccp-Rev
DERB.Stage.Inst.1Hour.0.Ccp-Rev
DERB.Flow.Inst.1Hour.0.Ccp-Rev
DERB.Volt-Battery Load.Inst.1Hour.0.Ccp-Rev

                            

All information presented herein is the property of the government of the United States of America and may be revised or deleted at any time without prior notice. Dissemination of this information without the expressed written consent of the Public Affairs Office, Tulsa District U.S. Army Corps of Engineers is strictly prohibited. These data are gathered electronically and, as presented, have NOT undergone any form of quality control. These data are NOT guaranteed to be valid or correct.